sensor_id;sensor_type;location;lat;lon;timestamp;temperature;humidity
71291;DHT22;59073;51.994;4.448;2022-09-09T00:00:17;17.10;81.79
71291;DHT22;59073;51.994;4.448;2022-09-09T00:03:02;17.17;81.95
71291;DHT22;59073;51.994;4.448;2022-09-09T00:08:45;17.11;82.13
71291;DHT22;59073;51.994;4.448;2022-09-09T00:11:30;16.97;82.47
71291;DHT22;59073;51.994;4.448;2022-09-09T00:14:03;16.94;82.60
71291;DHT22;59073;51.994;4.448;2022-09-09T00:16:40;16.87;82.88
71291;DHT22;59073;51.994;4.448;2022-09-09T00:19:23;16.88;83.28
71291;DHT22;59073;51.994;4.448;2022-09-09T00:22:14;16.95;82.92
71291;DHT22;59073;51.994;4.448;2022-09-09T00:24:52;17.03;82.55
71291;DHT22;59073;51.994;4.448;2022-09-09T00:27:42;17.01;82.61
71291;DHT22;59073;51.994;4.448;2022-09-09T00:30:22;16.94;82.64
71291;DHT22;59073;51.994;4.448;2022-09-09T00:32:59;17.07;82.50
71291;DHT22;59073;51.994;4.448;2022-09-09T00:35:38;17.14;81.92
71291;DHT22;59073;51.994;4.448;2022-09-09T00:44:37;17.21;81.27
71291;DHT22;59073;51.994;4.448;2022-09-09T00:50:35;17.18;81.17
71291;DHT22;59073;51.994;4.448;2022-09-09T00:58:22;17.04;82.31
71291;DHT22;59073;51.994;4.448;2022-09-09T01:01:06;16.94;82.75
71291;DHT22;59073;51.994;4.448;2022-09-09T01:03:52;16.93;83.15
71291;DHT22;59073;51.994;4.448;2022-09-09T01:06:34;16.87;83.29
71291;DHT22;59073;51.994;4.448;2022-09-09T01:09:38;16.88;83.34
71291;DHT22;59073;51.994;4.448;2022-09-09T01:12:16;16.84;83.48
71291;DHT22;59073;51.994;4.448;2022-09-09T01:14:47;16.84;83.35
71291;DHT22;59073;51.994;4.448;2022-09-09T01:17:39;16.79;84.06
71291;DHT22;59073;51.994;4.448;2022-09-09T01:20:27;16.76;84.21
71291;DHT22;59073;51.994;4.448;2022-09-09T01:23:28;16.83;84.43
71291;DHT22;59073;51.994;4.448;2022-09-09T01:32:52;17.04;82.92
71291;DHT22;59073;51.994;4.448;2022-09-09T01:37:57;16.94;83.22
71291;DHT22;59073;51.994;4.448;2022-09-09T01:40:26;16.90;83.13
71291;DHT22;59073;51.994;4.448;2022-09-09T01:42:53;16.88;83.31
71291;DHT22;59073;51.994;4.448;2022-09-09T01:45:21;16.91;83.07
71291;DHT22;59073;51.994;4.448;2022-09-09T01:48:06;16.95;82.75
71291;DHT22;59073;51.994;4.448;2022-09-09T01:50:34;16.94;82.51
71291;DHT22;59073;51.994;4.448;2022-09-09T01:53:02;16.84;82.76
71291;DHT22;59073;51.994;4.448;2022-09-09T01:55:39;16.83;83.16
71291;DHT22;59073;51.994;4.448;2022-09-09T01:58:32;16.74;83.11
71291;DHT22;59073;51.994;4.448;2022-09-09T02:13:17;16.57;83.59
71291;DHT22;59073;51.994;4.448;2022-09-09T02:16:04;16.53;83.89
71291;DHT22;59073;51.994;4.448;2022-09-09T02:21:22;16.48;83.47
71291;DHT22;59073;51.994;4.448;2022-09-09T02:27:05;16.36;83.78
71291;DHT22;59073;51.994;4.448;2022-09-09T02:29:54;16.40;83.75
71291;DHT22;59073;51.994;4.448;2022-09-09T02:32:56;16.38;83.79
71291;DHT22;59073;51.994;4.448;2022-09-09T02:46:30;16.43;83.05
71291;DHT22;59073;51.994;4.448;2022-09-09T02:56:22;16.50;82.43
71291;DHT22;59073;51.994;4.448;2022-09-09T02:58:50;16.57;82.39
71291;DHT22;59073;51.994;4.448;2022-09-09T03:14:40;16.57;81.69
71291;DHT22;59073;51.994;4.448;2022-09-09T03:17:44;16.57;81.91
71291;DHT22;59073;51.994;4.448;2022-09-09T03:20:32;16.55;82.22
71291;DHT22;59073;51.994;4.448;2022-09-09T03:23:05;16.56;82.02
71291;DHT22;59073;51.994;4.448;2022-09-09T03:25:40;16.55;81.79
71291;DHT22;59073;51.994;4.448;2022-09-09T03:32:26;16.48;82.25
71291;DHT22;59073;51.994;4.448;2022-09-09T03:35:27;16.52;82.10
71291;DHT22;59073;51.994;4.448;2022-09-09T03:38:00;16.55;82.11
71291;DHT22;59073;51.994;4.448;2022-09-09T03:40:59;16.59;81.77
71291;DHT22;59073;51.994;4.448;2022-09-09T04:04:04;16.52;81.76
71291;DHT22;59073;51.994;4.448;2022-09-09T04:17:28;16.53;81.73
71291;DHT22;59073;51.994;4.448;2022-09-09T04:20:04;16.49;81.78
71291;DHT22;59073;51.994;4.448;2022-09-09T04:29:56;16.23;82.41
71291;DHT22;59073;51.994;4.448;2022-09-09T04:32:22;16.21;82.73
71291;DHT22;59073;51.994;4.448;2022-09-09T04:38:22;16.13;82.83
71291;DHT22;59073;51.994;4.448;2022-09-09T04:40:59;15.97;83.18
71291;DHT22;59073;51.994;4.448;2022-09-09T05:04:56;15.95;83.44
71291;DHT22;59073;51.994;4.448;2022-09-09T05:07:51;15.98;83.79
71291;DHT22;59073;51.994;4.448;2022-09-09T05:13:55;15.97;83.72
71291;DHT22;59073;51.994;4.448;2022-09-09T05:16:22;15.95;83.60
71291;DHT22;59073;51.994;4.448;2022-09-09T05:32:10;16.42;82.31
71291;DHT22;59073;51.994;4.448;2022-09-09T05:35:19;16.57;81.71
71291;DHT22;59073;51.994;4.448;2022-09-09T05:37:48;16.67;81.40
71291;DHT22;59073;51.994;4.448;2022-09-09T05:40:14;17.08;80.06
71291;DHT22;59073;51.994;4.448;2022-09-09T05:43:00;17.12;79.66
71291;DHT22;59073;51.994;4.448;2022-09-09T05:45:26;17.48;78.65
71291;DHT22;59073;51.994;4.448;2022-09-09T05:48:01;17.45;78.32
71291;DHT22;59073;51.994;4.448;2022-09-09T05:50:33;17.65;78.00
71291;DHT22;59073;51.994;4.448;2022-09-09T05:53:10;18.10;76.15
71291;DHT22;59073;51.994;4.448;2022-09-09T05:55:39;17.96;76.93
71291;DHT22;59073;51.994;4.448;2022-09-09T05:58:04;17.66;77.26
71291;DHT22;59073;51.994;4.448;2022-09-09T06:00:39;17.30;78.88
71291;DHT22;59073;51.994;4.448;2022-09-09T06:03:29;17.46;78.89
71291;DHT22;59073;51.994;4.448;2022-09-09T06:06:06;17.59;78.33
71291;DHT22;59073;51.994;4.448;2022-09-09T06:08:41;17.38;79.10
71291;DHT22;59073;51.994;4.448;2022-09-09T06:11:31;16.95;80.08
71291;DHT22;59073;51.994;4.448;2022-09-09T06:14:08;16.85;80.51
71291;DHT22;59073;51.994;4.448;2022-09-09T06:16:52;16.94;80.69
71291;DHT22;59073;51.994;4.448;2022-09-09T06:19:21;16.83;81.00
71291;DHT22;59073;51.994;4.448;2022-09-09T06:21:49;16.91;80.90
71291;DHT22;59073;51.994;4.448;2022-09-09T06:24:15;16.81;81.18
71291;DHT22;59073;51.994;4.448;2022-09-09T06:26:42;16.93;80.94
71291;DHT22;59073;51.994;4.448;2022-09-09T06:29:08;16.97;80.79
71291;DHT22;59073;51.994;4.448;2022-09-09T06:31:37;16.95;80.85
71291;DHT22;59073;51.994;4.448;2022-09-09T06:34:21;16.79;80.64
71291;DHT22;59073;51.994;4.448;2022-09-09T06:37:16;16.83;81.11
71291;DHT22;59073;51.994;4.448;2022-09-09T06:39:47;16.91;81.37
71291;DHT22;59073;51.994;4.448;2022-09-09T06:42:13;16.83;81.10
71291;DHT22;59073;51.994;4.448;2022-09-09T06:44:38;16.76;81.25
71291;DHT22;59073;51.994;4.448;2022-09-09T06:47:06;16.93;81.04
71291;DHT22;59073;51.994;4.448;2022-09-09T06:49:31;17.08;80.71
71291;DHT22;59073;51.994;4.448;2022-09-09T06:51:57;17.07;80.60
71291;DHT22;59073;51.994;4.448;2022-09-09T06:54:24;17.14;80.77
71291;DHT22;59073;51.994;4.448;2022-09-09T06:56:50;17.35;80.18
71291;DHT22;59073;51.994;4.448;2022-09-09T06:59:27;17.39;80.02
71291;DHT22;59073;51.994;4.448;2022-09-09T07:01:53;17.22;80.45
71291;DHT22;59073;51.994;4.448;2022-09-09T07:04:34;17.36;80.03
71291;DHT22;59073;51.994;4.448;2022-09-09T07:07:00;17.32;80.12
71291;DHT22;59073;51.994;4.448;2022-09-09T07:09:26;17.14;80.26
71291;DHT22;59073;51.994;4.448;2022-09-09T07:12:01;17.21;80.23
71291;DHT22;59073;51.994;4.448;2022-09-09T07:14:32;17.21;80.58
71291;DHT22;59073;51.994;4.448;2022-09-09T07:16:59;17.35;80.35
71291;DHT22;59073;51.994;4.448;2022-09-09T07:19:25;17.27;80.52
71291;DHT22;59073;51.994;4.448;2022-09-09T07:21:57;17.03;80.59
71291;DHT22;59073;51.994;4.448;2022-09-09T07:24:40;16.97;80.95
71291;DHT22;59073;51.994;4.448;2022-09-09T07:27:05;17.07;80.73
71291;DHT22;59073;51.994;4.448;2022-09-09T07:29:30;17.01;80.74
71291;DHT22;59073;51.994;4.448;2022-09-09T07:31:56;16.99;80.91
71291;DHT22;59073;51.994;4.448;2022-09-09T07:34:22;16.99;80.79
71291;DHT22;59073;51.994;4.448;2022-09-09T07:36:47;17.06;80.83
71291;DHT22;59073;51.994;4.448;2022-09-09T07:39:14;17.01;80.62
71291;DHT22;59073;51.994;4.448;2022-09-09T07:41:43;17.00;80.91
71291;DHT22;59073;51.994;4.448;2022-09-09T07:44:14;17.12;80.70
71291;DHT22;59073;51.994;4.448;2022-09-09T07:46:41;17.18;80.53
71291;DHT22;59073;51.994;4.448;2022-09-09T07:49:07;17.36;80.20
71291;DHT22;59073;51.994;4.448;2022-09-09T07:51:35;17.36;80.16
71291;DHT22;59073;51.994;4.448;2022-09-09T07:54:05;17.43;79.99
71291;DHT22;59073;51.994;4.448;2022-09-09T07:56:46;17.41;79.61
71291;DHT22;59073;51.994;4.448;2022-09-09T07:59:13;17.35;80.02
71291;DHT22;59073;51.994;4.448;2022-09-09T08:01:50;17.62;79.75
71291;DHT22;59073;51.994;4.448;2022-09-09T08:04:20;17.49;79.75
71291;DHT22;59073;51.994;4.448;2022-09-09T08:06:57;17.36;80.26
71291;DHT22;59073;51.994;4.448;2022-09-09T08:09:24;17.36;80.00
71291;DHT22;59073;51.994;4.448;2022-09-09T08:11:52;17.31;79.84
71291;DHT22;59073;51.994;4.448;2022-09-09T08:14:18;17.39;79.27
71291;DHT22;59073;51.994;4.448;2022-09-09T08:17:06;17.45;79.19
71291;DHT22;59073;51.994;4.448;2022-09-09T08:19:38;17.58;79.10
71291;DHT22;59073;51.994;4.448;2022-09-09T08:22:03;17.59;78.81
71291;DHT22;59073;51.994;4.448;2022-09-09T08:24:29;17.59;79.06
71291;DHT22;59073;51.994;4.448;2022-09-09T08:30:16;17.49;78.93
71291;DHT22;59073;51.994;4.448;2022-09-09T08:32:48;17.39;79.02
71291;DHT22;59073;51.994;4.448;2022-09-09T08:35:23;17.56;79.14
71291;DHT22;59073;51.994;4.448;2022-09-09T08:37:48;17.68;78.46
71291;DHT22;59073;51.994;4.448;2022-09-09T08:40:26;17.48;79.10
71291;DHT22;59073;51.994;4.448;2022-09-09T08:43:07;17.52;78.65
71291;DHT22;59073;51.994;4.448;2022-09-09T08:45:50;17.62;79.11
71291;DHT22;59073;51.994;4.448;2022-09-09T08:48:54;17.41;79.04
71291;DHT22;59073;51.994;4.448;2022-09-09T08:51:27;17.46;79.26
71291;DHT22;59073;51.994;4.448;2022-09-09T08:53:55;17.52;79.32
71291;DHT22;59073;51.994;4.448;2022-09-09T08:56:25;17.59;78.83
71291;DHT22;59073;51.994;4.448;2022-09-09T08:58:54;17.52;79.32
71291;DHT22;59073;51.994;4.448;2022-09-09T09:07:47;17.32;79.99
71291;DHT22;59073;51.994;4.448;2022-09-09T09:10:45;17.41;80.13
71291;DHT22;59073;51.994;4.448;2022-09-09T09:13:19;17.38;80.35
71291;DHT22;59073;51.994;4.448;2022-09-09T09:16:00;17.41;79.97
71291;DHT22;59073;51.994;4.448;2022-09-09T09:18:32;17.56;79.94
71291;DHT22;59073;51.994;4.448;2022-09-09T09:24:11;17.51;80.22
71291;DHT22;59073;51.994;4.448;2022-09-09T09:26:55;17.61;79.93
71291;DHT22;59073;51.994;4.448;2022-09-09T09:29:27;17.76;79.09
71291;DHT22;59073;51.994;4.448;2022-09-09T09:31:59;17.92;80.17
71291;DHT22;59073;51.994;4.448;2022-09-09T09:34:29;18.04;80.62
71291;DHT22;59073;51.994;4.448;2022-09-09T09:37:07;18.45;80.79
71291;DHT22;59073;51.994;4.448;2022-09-09T09:39:37;18.37;79.76
71291;DHT22;59073;51.994;4.448;2022-09-09T09:42:46;18.41;79.51
71291;DHT22;59073;51.994;4.448;2022-09-09T09:45:43;18.31;79.71
71291;DHT22;59073;51.994;4.448;2022-09-09T09:48:15;18.40;79.63
71291;DHT22;59073;51.994;4.448;2022-09-09T09:53:45;18.65;79.68
71291;DHT22;59073;51.994;4.448;2022-09-09T09:56:29;18.65;78.63
71291;DHT22;59073;51.994;4.448;2022-09-09T09:59:02;18.65;79.48
71291;DHT22;59073;51.994;4.448;2022-09-09T10:01:30;18.44;80.02
71291;DHT22;59073;51.994;4.448;2022-09-09T10:04:30;18.12;81.48
71291;DHT22;59073;51.994;4.448;2022-09-09T10:07:21;17.80;83.25
71291;DHT22;59073;51.994;4.448;2022-09-09T10:09:57;17.68;83.98
71291;DHT22;59073;51.994;4.448;2022-09-09T10:38:45;18.91;80.70
71291;DHT22;59073;51.994;4.448;2022-09-09T10:44:33;18.74;81.56
71291;DHT22;59073;51.994;4.448;2022-09-09T10:47:39;18.55;80.73
71291;DHT22;59073;51.994;4.448;2022-09-09T10:58:10;19.64;79.91
71291;DHT22;59073;51.994;4.448;2022-09-09T11:41:49;18.96;78.51
71291;DHT22;59073;51.994;4.448;2022-09-09T11:47:52;18.71;80.04
71291;DHT22;59073;51.994;4.448;2022-09-09T11:53:23;18.29;83.23
71291;DHT22;59073;51.994;4.448;2022-09-09T12:08:16;18.79;83.00
71291;DHT22;59073;51.994;4.448;2022-09-09T12:11:06;18.72;82.79
71291;DHT22;59073;51.994;4.448;2022-09-09T12:13:57;18.88;82.92
71291;DHT22;59073;51.994;4.448;2022-09-09T12:16:57;18.88;82.65
71291;DHT22;59073;51.994;4.448;2022-09-09T12:19:36;18.98;82.79
71291;DHT22;59073;51.994;4.448;2022-09-09T12:31:59;18.88;82.69
71291;DHT22;59073;51.994;4.448;2022-09-09T12:53:26;18.79;81.55
71291;DHT22;59073;51.994;4.448;2022-09-09T13:06:29;19.42;80.24
71291;DHT22;59073;51.994;4.448;2022-09-09T13:09:27;19.71;80.49
71291;DHT22;59073;51.994;4.448;2022-09-09T13:11:59;19.80;78.33
71291;DHT22;59073;51.994;4.448;2022-09-09T13:14:32;19.98;78.75
71291;DHT22;59073;51.994;4.448;2022-09-09T13:17:02;19.77;77.79
71291;DHT22;59073;51.994;4.448;2022-09-09T13:19:47;19.92;78.14
71291;DHT22;59073;51.994;4.448;2022-09-09T13:22:34;19.92;78.45
71291;DHT22;59073;51.994;4.448;2022-09-09T13:27:41;20.28;77.98
71291;DHT22;59073;51.994;4.448;2022-09-09T13:30:20;20.18;78.38
71291;DHT22;59073;51.994;4.448;2022-09-09T13:36:07;19.88;78.77
71291;DHT22;59073;51.994;4.448;2022-09-09T13:41:55;19.27;81.62
71291;DHT22;59073;51.994;4.448;2022-09-09T13:48:28;18.79;82.92
71291;DHT22;59073;51.994;4.448;2022-09-09T13:51:39;18.33;83.30
71291;DHT22;59073;51.994;4.448;2022-09-09T13:54:15;18.26;84.02
71291;DHT22;59073;51.994;4.448;2022-09-09T14:01:05;18.18;84.01
71291;DHT22;59073;51.994;4.448;2022-09-09T14:03:50;18.34;83.83
71291;DHT22;59073;51.994;4.448;2022-09-09T14:27:05;19.16;81.53
71291;DHT22;59073;51.994;4.448;2022-09-09T15:15:33;21.28;75.90
71291;DHT22;59073;51.994;4.448;2022-09-09T15:18:02;21.10;74.17
71291;DHT22;59073;51.994;4.448;2022-09-09T15:20:28;21.00;75.29
71291;DHT22;59073;51.994;4.448;2022-09-09T15:23:11;20.63;75.35
71291;DHT22;59073;51.994;4.448;2022-09-09T15:38:49;19.88;79.00
71291;DHT22;59073;51.994;4.448;2022-09-09T15:45:15;19.78;79.99
71291;DHT22;59073;51.994;4.448;2022-09-09T15:47:41;19.80;79.93
71291;DHT22;59073;51.994;4.448;2022-09-09T15:53:45;19.50;80.54
71291;DHT22;59073;51.994;4.448;2022-09-09T15:56:16;19.47;80.70
71291;DHT22;59073;51.994;4.448;2022-09-09T15:59:29;19.46;81.43
71291;DHT22;59073;51.994;4.448;2022-09-09T16:05:36;19.47;81.28
71291;DHT22;59073;51.994;4.448;2022-09-09T16:14:43;19.54;80.33
71291;DHT22;59073;51.994;4.448;2022-09-09T16:17:10;19.29;81.11
71291;DHT22;59073;51.994;4.448;2022-09-09T16:23:15;19.19;81.97
71291;DHT22;59073;51.994;4.448;2022-09-09T16:25:55;19.36;82.08
71291;DHT22;59073;51.994;4.448;2022-09-09T16:28:21;19.46;82.01
71291;DHT22;59073;51.994;4.448;2022-09-09T16:30:46;19.45;81.93
71291;DHT22;59073;51.994;4.448;2022-09-09T16:33:47;19.66;81.35
71291;DHT22;59073;51.994;4.448;2022-09-09T16:39:42;19.60;81.08
71291;DHT22;59073;51.994;4.448;2022-09-09T16:42:21;19.60;79.82
71291;DHT22;59073;51.994;4.448;2022-09-09T16:44:52;19.52;78.88
71291;DHT22;59073;51.994;4.448;2022-09-09T16:47:18;19.36;79.47
71291;DHT22;59073;51.994;4.448;2022-09-09T16:49:46;19.26;78.60
71291;DHT22;59073;51.994;4.448;2022-09-09T16:52:21;19.27;77.41
71291;DHT22;59073;51.994;4.448;2022-09-09T17:15:32;18.27;81.35
71291;DHT22;59073;51.994;4.448;2022-09-09T17:18:17;18.37;81.78
71291;DHT22;59073;51.994;4.448;2022-09-09T17:24:26;18.47;82.88
71291;DHT22;59073;51.994;4.448;2022-09-09T17:27:07;18.52;82.95
71291;DHT22;59073;51.994;4.448;2022-09-09T17:29:50;18.45;82.83
71291;DHT22;59073;51.994;4.448;2022-09-09T17:32:17;18.43;82.49
71291;DHT22;59073;51.994;4.448;2022-09-09T17:34:51;18.33;83.37
71291;DHT22;59073;51.994;4.448;2022-09-09T17:37:18;18.30;83.70
71291;DHT22;59073;51.994;4.448;2022-09-09T17:39:43;18.41;83.61
71291;DHT22;59073;51.994;4.448;2022-09-09T17:42:12;18.44;82.87
71291;DHT22;59073;51.994;4.448;2022-09-09T17:44:37;18.33;82.95
71291;DHT22;59073;51.994;4.448;2022-09-09T17:47:04;18.17;83.25
71291;DHT22;59073;51.994;4.448;2022-09-09T17:49:56;18.14;83.30
71291;DHT22;59073;51.994;4.448;2022-09-09T17:52:25;18.03;83.29
71291;DHT22;59073;51.994;4.448;2022-09-09T17:54:50;18.00;83.22
71291;DHT22;59073;51.994;4.448;2022-09-09T17:57:16;17.97;83.24
71291;DHT22;59073;51.994;4.448;2022-09-09T17:59:44;17.96;83.93
71291;DHT22;59073;51.994;4.448;2022-09-09T18:02:29;17.93;84.13
71291;DHT22;59073;51.994;4.448;2022-09-09T18:18:50;17.90;84.09
71291;DHT22;59073;51.994;4.448;2022-09-09T18:24:19;17.97;83.85
71291;DHT22;59073;51.994;4.448;2022-09-09T18:47:41;18.20;83.01
71291;DHT22;59073;51.994;4.448;2022-09-09T18:50:37;18.16;83.17
71291;DHT22;59073;51.994;4.448;2022-09-09T18:53:23;18.20;82.97
71291;DHT22;59073;51.994;4.448;2022-09-09T18:55:59;18.13;82.55
71291;DHT22;59073;51.994;4.448;2022-09-09T18:58:27;18.20;82.72
71291;DHT22;59073;51.994;4.448;2022-09-09T19:01:02;18.21;82.80
71291;DHT22;59073;51.994;4.448;2022-09-09T19:03:38;18.20;82.68
71291;DHT22;59073;51.994;4.448;2022-09-09T19:10:25;17.96;82.59
71291;DHT22;59073;51.994;4.448;2022-09-09T19:16:22;17.79;83.22
71291;DHT22;59073;51.994;4.448;2022-09-09T19:59:20;17.68;83.06
71291;DHT22;59073;51.994;4.448;2022-09-09T20:09:38;17.85;81.98
71291;DHT22;59073;51.994;4.448;2022-09-09T20:12:03;17.82;81.77
71291;DHT22;59073;51.994;4.448;2022-09-09T20:14:29;17.73;82.29
71291;DHT22;59073;51.994;4.448;2022-09-09T20:16:54;17.68;82.33
71291;DHT22;59073;51.994;4.448;2022-09-09T20:19:20;17.63;82.42
71291;DHT22;59073;51.994;4.448;2022-09-09T20:21:46;17.69;82.48
71291;DHT22;59073;51.994;4.448;2022-09-09T20:24:17;17.69;82.69
71291;DHT22;59073;51.994;4.448;2022-09-09T20:26:43;17.72;82.57
71291;DHT22;59073;51.994;4.448;2022-09-09T20:29:11;17.75;82.51
71291;DHT22;59073;51.994;4.448;2022-09-09T20:31:38;17.76;82.31
71291;DHT22;59073;51.994;4.448;2022-09-09T20:34:06;17.83;82.16
71291;DHT22;59073;51.994;4.448;2022-09-09T20:36:35;17.85;82.22
71291;DHT22;59073;51.994;4.448;2022-09-09T20:39:15;17.89;82.31
71291;DHT22;59073;51.994;4.448;2022-09-09T20:41:42;17.89;82.04
71291;DHT22;59073;51.994;4.448;2022-09-09T20:44:20;17.82;82.22
71291;DHT22;59073;51.994;4.448;2022-09-09T20:46:49;17.73;82.89
71291;DHT22;59073;51.994;4.448;2022-09-09T20:49:19;17.68;83.18
71291;DHT22;59073;51.994;4.448;2022-09-09T20:51:47;17.72;83.59
71291;DHT22;59073;51.994;4.448;2022-09-09T20:54:18;17.69;83.48
71291;DHT22;59073;51.994;4.448;2022-09-09T20:56:45;17.63;84.04
71291;DHT22;59073;51.994;4.448;2022-09-09T20:59:14;17.62;83.79
71291;DHT22;59073;51.994;4.448;2022-09-09T21:01:40;17.53;84.13
71291;DHT22;59073;51.994;4.448;2022-09-09T21:04:07;17.46;84.54
71291;DHT22;59073;51.994;4.448;2022-09-09T21:06:34;17.48;84.54
71291;DHT22;59073;51.994;4.448;2022-09-09T21:08:59;17.45;84.56
71291;DHT22;59073;51.994;4.448;2022-09-09T21:11:25;17.36;84.97
71291;DHT22;59073;51.994;4.448;2022-09-09T21:13:50;17.36;85.06
71291;DHT22;59073;51.994;4.448;2022-09-09T21:16:17;17.39;85.02
71291;DHT22;59073;51.994;4.448;2022-09-09T21:18:47;17.51;84.91
71291;DHT22;59073;51.994;4.448;2022-09-09T21:21:14;17.53;84.76
71291;DHT22;59073;51.994;4.448;2022-09-09T21:23:40;17.55;84.59
71291;DHT22;59073;51.994;4.448;2022-09-09T21:26:07;17.55;84.89
71291;DHT22;59073;51.994;4.448;2022-09-09T21:28:34;17.53;84.64
71291;DHT22;59073;51.994;4.448;2022-09-09T21:31:01;17.46;84.96
71291;DHT22;59073;51.994;4.448;2022-09-09T21:33:27;17.46;85.32
71291;DHT22;59073;51.994;4.448;2022-09-09T21:35:54;17.49;85.21
71291;DHT22;59073;51.994;4.448;2022-09-09T21:38:23;17.42;85.54
71291;DHT22;59073;51.994;4.448;2022-09-09T21:40:49;17.46;85.59
71291;DHT22;59073;51.994;4.448;2022-09-09T21:43:16;17.46;85.64
71291;DHT22;59073;51.994;4.448;2022-09-09T21:45:42;17.51;85.76
71291;DHT22;59073;51.994;4.448;2022-09-09T21:48:11;17.65;85.19
71291;DHT22;59073;51.994;4.448;2022-09-09T21:50:45;17.65;85.44
71291;DHT22;59073;51.994;4.448;2022-09-09T21:53:13;17.63;85.22
71291;DHT22;59073;51.994;4.448;2022-09-09T21:55:42;17.68;85.34
71291;DHT22;59073;51.994;4.448;2022-09-09T21:58:09;17.75;85.23
71291;DHT22;59073;51.994;4.448;2022-09-09T22:00:39;17.78;85.07
71291;DHT22;59073;51.994;4.448;2022-09-09T22:03:07;17.78;85.25
71291;DHT22;59073;51.994;4.448;2022-09-09T22:05:33;17.80;85.33
71291;DHT22;59073;51.994;4.448;2022-09-09T22:07:59;17.80;85.40
71291;DHT22;59073;51.994;4.448;2022-09-09T22:10:24;17.79;85.37
71291;DHT22;59073;51.994;4.448;2022-09-09T22:12:53;17.86;85.42
71291;DHT22;59073;51.994;4.448;2022-09-09T22:15:18;17.86;85.31
71291;DHT22;59073;51.994;4.448;2022-09-09T22:17:44;17.86;85.04
71291;DHT22;59073;51.994;4.448;2022-09-09T22:20:10;17.86;85.02
71291;DHT22;59073;51.994;4.448;2022-09-09T22:22:37;17.82;84.98
71291;DHT22;59073;51.994;4.448;2022-09-09T22:25:03;17.82;84.94
71291;DHT22;59073;51.994;4.448;2022-09-09T22:27:28;17.85;85.10
71291;DHT22;59073;51.994;4.448;2022-09-09T22:29:53;17.82;85.16
71291;DHT22;59073;51.994;4.448;2022-09-09T22:32:19;17.80;85.24
71291;DHT22;59073;51.994;4.448;2022-09-09T22:34:44;17.76;85.57
71291;DHT22;59073;51.994;4.448;2022-09-09T22:37:11;17.75;85.65
71291;DHT22;59073;51.994;4.448;2022-09-09T22:39:37;17.68;85.97
71291;DHT22;59073;51.994;4.448;2022-09-09T22:42:02;17.68;86.09
71291;DHT22;59073;51.994;4.448;2022-09-09T22:44:29;17.63;86.41
71291;DHT22;59073;51.994;4.448;2022-09-09T22:46:56;17.72;86.45
71291;DHT22;59073;51.994;4.448;2022-09-09T22:49:22;17.87;86.27
71291;DHT22;59073;51.994;4.448;2022-09-09T22:51:48;18.07;85.52
71291;DHT22;59073;51.994;4.448;2022-09-09T22:54:14;18.23;84.91
71291;DHT22;59073;51.994;4.448;2022-09-09T22:56:39;18.31;84.88
71291;DHT22;59073;51.994;4.448;2022-09-09T22:59:06;18.36;84.31
71291;DHT22;59073;51.994;4.448;2022-09-09T23:01:32;18.38;84.08
71291;DHT22;59073;51.994;4.448;2022-09-09T23:03:57;18.13;84.04
71291;DHT22;59073;51.994;4.448;2022-09-09T23:06:26;18.07;84.52
71291;DHT22;59073;51.994;4.448;2022-09-09T23:08:54;17.96;84.74
71291;DHT22;59073;51.994;4.448;2022-09-09T23:11:20;17.90;84.69
71291;DHT22;59073;51.994;4.448;2022-09-09T23:13:52;17.86;85.09
71291;DHT22;59073;51.994;4.448;2022-09-09T23:17:05;17.87;84.07
71291;DHT22;59073;51.994;4.448;2022-09-09T23:19:15;17.79;84.10
71291;DHT22;59073;51.994;4.448;2022-09-09T23:21:42;17.69;84.17
71291;DHT22;59073;51.994;4.448;2022-09-09T23:24:12;17.63;84.34
71291;DHT22;59073;51.994;4.448;2022-09-09T23:26:38;17.56;84.24
71291;DHT22;59073;51.994;4.448;2022-09-09T23:29:04;17.53;84.57
71291;DHT22;59073;51.994;4.448;2022-09-09T23:31:33;17.42;85.09
71291;DHT22;59073;51.994;4.448;2022-09-09T23:34:02;17.49;84.87
71291;DHT22;59073;51.994;4.448;2022-09-09T23:36:29;17.52;84.90
71291;DHT22;59073;51.994;4.448;2022-09-09T23:39:00;17.52;84.62
71291;DHT22;59073;51.994;4.448;2022-09-09T23:41:28;17.61;84.34
71291;DHT22;59073;51.994;4.448;2022-09-09T23:43:53;17.51;84.48
71291;DHT22;59073;51.994;4.448;2022-09-09T23:46:25;17.49;84.32
71291;DHT22;59073;51.994;4.448;2022-09-09T23:48:54;17.46;84.73
71291;DHT22;59073;51.994;4.448;2022-09-09T23:51:23;17.45;85.23
71291;DHT22;59073;51.994;4.448;2022-09-09T23:53:52;17.46;85.46
71291;DHT22;59073;51.994;4.448;2022-09-09T23:56:19;17.48;85.07
71291;DHT22;59073;51.994;4.448;2022-09-09T23:58:45;17.55;84.95
